createdAt,value
2024-03-12T00:01:11.530Z,12.05
2024-03-12T00:03:44.220Z,11.80
2024-03-12T00:06:11.198Z,11.74
2024-03-12T00:08:37.961Z,11.49
2024-03-12T00:11:07.342Z,11.87
2024-03-12T00:13:33.997Z,11.70
2024-03-12T00:16:01.750Z,12.13
2024-03-12T00:18:28.330Z,11.94
2024-03-12T00:20:54.934Z,12.45
2024-03-12T00:23:23.273Z,12.22
2024-03-12T00:25:50.327Z,12.27
2024-03-12T00:28:17.511Z,12.12
2024-03-12T00:30:44.048Z,11.90
2024-03-12T00:33:11.112Z,12.59
2024-03-12T00:35:40.016Z,12.57
2024-03-12T00:38:06.418Z,12.35
2024-03-12T00:40:37.564Z,12.51
2024-03-12T00:43:07.065Z,12.51
2024-03-12T00:45:42.536Z,12.10
2024-03-12T00:48:11.324Z,12.59
2024-03-12T00:50:38.764Z,12.37
2024-03-12T00:53:05.756Z,12.38
2024-03-12T00:55:32.734Z,12.19
2024-03-12T00:57:59.678Z,12.70
2024-03-12T01:00:27.859Z,11.92
2024-03-12T01:02:55.771Z,11.90
2024-03-12T01:05:27.698Z,11.42
2024-03-12T01:08:01.388Z,11.61
2024-03-12T01:10:29.643Z,11.64
2024-03-12T01:12:57.277Z,11.95
2024-03-12T01:15:24.945Z,11.55
2024-03-12T01:17:54.481Z,11.49
2024-03-12T01:20:22.105Z,11.75
2024-03-12T01:22:51.470Z,11.56
2024-03-12T01:25:19.109Z,12.22
2024-03-12T01:27:45.604Z,11.63
2024-03-12T01:30:15.470Z,11.96
2024-03-12T01:32:42.506Z,11.11
2024-03-12T01:35:09.554Z,11.22
2024-03-12T01:37:42.336Z,11.52
2024-03-12T01:40:26.916Z,11.73
2024-03-12T01:42:58.060Z,11.19
2024-03-12T01:45:25.784Z,11.54
2024-03-12T01:47:55.292Z,11.71
2024-03-12T01:50:23.067Z,11.64
2024-03-12T01:52:51.914Z,11.69
2024-03-12T01:55:19.718Z,11.52
2024-03-12T01:57:47.451Z,11.81
2024-03-12T02:00:15.921Z,11.37
2024-03-12T02:02:43.777Z,11.05
2024-03-12T02:05:11.569Z,11.00
2024-03-12T02:07:40.860Z,11.20
2024-03-12T02:10:08.777Z,10.78
2024-03-12T02:12:35.176Z,10.83
2024-03-12T02:15:04.485Z,10.92
2024-03-12T02:17:31.470Z,10.52
2024-03-12T02:19:58.304Z,10.68
2024-03-12T02:22:25.231Z,11.36
2024-03-12T02:24:52.450Z,11.36
2024-03-12T02:27:19.058Z,11.08
2024-03-12T02:29:45.753Z,11.01
2024-03-12T02:32:12.266Z,11.49
2024-03-12T02:34:38.730Z,11.43
2024-03-12T02:37:05.254Z,11.19
2024-03-12T02:39:31.782Z,11.22
2024-03-12T02:41:59.091Z,10.83
2024-03-12T02:44:25.690Z,10.87
2024-03-12T02:46:53.775Z,10.97
2024-03-12T02:49:21.390Z,10.58
2024-03-12T02:51:47.849Z,10.76
2024-03-12T02:54:14.466Z,10.42
2024-03-12T02:56:41.258Z,10.76
2024-03-12T02:59:10.139Z,10.57
2024-03-12T03:01:36.666Z,10.95
2024-03-12T03:04:04.005Z,11.18
2024-03-12T03:06:30.811Z,11.37
2024-03-12T03:08:59.567Z,11.56
2024-03-12T03:11:26.479Z,11.25
2024-03-12T03:13:52.887Z,11.20
2024-03-12T03:16:21.493Z,11.50
2024-03-12T03:18:48.060Z,11.44
2024-03-12T03:21:15.262Z,11.30
2024-03-12T03:23:43.270Z,11.52
2024-03-12T03:26:09.940Z,10.97
2024-03-12T03:28:36.319Z,11.64
2024-03-12T03:31:03.015Z,11.63
2024-03-12T03:33:29.636Z,11.85
2024-03-12T03:35:56.020Z,11.86
2024-03-12T03:38:22.452Z,11.91
2024-03-12T03:40:48.824Z,12.06
2024-03-12T03:43:15.425Z,11.73
2024-03-12T03:45:42.106Z,11.58
2024-03-12T03:48:08.693Z,11.75
2024-03-12T03:50:35.165Z,11.69
2024-03-12T03:53:01.529Z,11.33
2024-03-12T03:55:27.898Z,11.53
2024-03-12T03:57:54.739Z,11.38
2024-03-12T04:00:24.424Z,11.27
2024-03-12T04:02:51.146Z,10.72
2024-03-12T04:05:17.984Z,10.99
2024-03-12T04:07:45.474Z,11.06
2024-03-12T04:10:12.492Z,11.12
2024-03-12T04:12:42.452Z,10.80
2024-03-12T04:15:10.744Z,10.37
2024-03-12T04:17:38.404Z,10.24
2024-03-12T04:20:12.437Z,10.27
2024-03-12T04:22:39.822Z,10.15
2024-03-12T04:25:08.322Z,10.24
2024-03-12T04:27:38.574Z,10.14
2024-03-12T04:30:12.740Z,10.27
2024-03-12T04:32:40.391Z,9.98
2024-03-12T04:35:08.952Z,10.46
2024-03-12T04:37:35.417Z,10.35
2024-03-12T04:40:09.901Z,10.18
2024-03-12T04:42:38.122Z,10.63
2024-03-12T04:45:06.389Z,10.14
2024-03-12T04:47:34.066Z,10.34
2024-03-12T04:50:00.556Z,10.57
2024-03-12T04:52:26.930Z,10.47
2024-03-12T04:54:53.420Z,10.47
2024-03-12T04:57:20.662Z,11.01
2024-03-12T04:59:48.760Z,10.62
2024-03-12T05:02:16.329Z,10.81
2024-03-12T05:04:42.910Z,10.65
2024-03-12T05:07:09.741Z,10.71
2024-03-12T05:09:36.441Z,11.03
2024-03-12T05:12:03.065Z,10.37
2024-03-12T05:14:29.441Z,10.40
2024-03-12T05:16:56.213Z,10.44
2024-03-12T05:19:22.777Z,10.69
2024-03-12T05:21:49.202Z,10.98
2024-03-12T05:24:18.953Z,10.67
2024-03-12T05:26:46.073Z,10.40
2024-03-12T05:29:13.202Z,11.23
2024-03-12T05:31:39.934Z,10.60
2024-03-12T05:34:17.697Z,10.68
2024-03-12T05:36:49.706Z,10.63
2024-03-12T05:39:48.804Z,10.32
2024-03-12T05:42:34.051Z,10.82
2024-03-12T05:45:19.416Z,10.62
2024-03-12T05:48:04.275Z,10.84
2024-03-12T05:50:30.819Z,11.06
2024-03-12T05:52:57.619Z,10.59
2024-03-12T05:55:24.329Z,10.56
2024-03-12T05:57:50.851Z,10.72
2024-03-12T06:00:18.575Z,10.51
2024-03-12T06:02:45.780Z,10.53
2024-03-12T06:05:14.006Z,10.96
2024-03-12T06:07:49.445Z,10.42
2024-03-12T06:10:17.618Z,10.53
2024-03-12T06:12:44.318Z,10.63
2024-03-12T06:15:10.826Z,11.06
2024-03-12T06:17:37.987Z,10.75
2024-03-12T06:20:11.067Z,10.77
2024-03-12T06:22:38.018Z,11.27
2024-03-12T06:25:04.839Z,11.28
2024-03-12T06:27:31.731Z,11.23
2024-03-12T06:29:58.238Z,10.86
2024-03-12T06:32:26.272Z,10.51
2024-03-12T06:34:52.785Z,11.01
2024-03-12T06:37:19.941Z,11.24
2024-03-12T06:39:47.661Z,11.01
2024-03-12T06:42:14.247Z,11.36
2024-03-12T06:44:43.287Z,11.24
2024-03-12T06:47:13.576Z,11.20
2024-03-12T06:49:44.084Z,11.62
2024-03-12T06:52:10.730Z,11.13
2024-03-12T06:54:37.821Z,10.82
2024-03-12T06:57:05.615Z,11.26
2024-03-12T06:59:36.471Z,11.24
2024-03-12T07:02:03.926Z,10.71
2024-03-12T07:04:44.137Z,10.95
2024-03-12T07:07:11.746Z,10.81
2024-03-12T07:09:42.437Z,11.22
2024-03-12T07:12:09.705Z,10.77
2024-03-12T07:14:44.719Z,10.35
2024-03-12T07:17:11.381Z,10.66
2024-03-12T07:19:39.210Z,11.01
2024-03-12T07:22:09.020Z,10.77
2024-03-12T07:24:39.130Z,10.64
2024-03-12T07:27:05.703Z,11.16
2024-03-12T07:29:33.702Z,10.15
2024-03-12T07:32:04.524Z,10.94
2024-03-12T07:34:31.637Z,10.63
2024-03-12T07:37:01.610Z,10.30
2024-03-12T07:39:38.273Z,10.81
2024-03-12T07:42:13.534Z,10.50
2024-03-12T07:44:42.018Z,10.69
2024-03-12T07:47:08.439Z,10.26
2024-03-12T07:49:37.427Z,11.00
2024-03-12T07:52:03.879Z,10.69
2024-03-12T07:54:32.427Z,11.17
2024-03-12T07:57:00.405Z,10.77
2024-03-12T07:59:29.584Z,11.04
2024-03-12T08:01:58.373Z,10.48
2024-03-12T08:04:28.103Z,10.65
2024-03-12T08:06:54.765Z,10.72
2024-03-12T08:09:21.465Z,10.68
2024-03-12T08:11:49.212Z,11.02
2024-03-12T08:14:17.127Z,11.30
2024-03-12T08:16:44.215Z,10.75
2024-03-12T08:19:13.889Z,10.42
2024-03-12T08:21:40.709Z,11.01
2024-03-12T08:24:07.419Z,10.84
2024-03-12T08:26:33.913Z,10.89
2024-03-12T08:29:00.316Z,11.03
2024-03-12T08:31:33.298Z,10.79
2024-03-12T08:34:10.361Z,10.91
2024-03-12T08:36:37.367Z,10.78
2024-03-12T08:39:05.681Z,10.85
2024-03-12T08:41:33.997Z,11.05
2024-03-12T08:44:00.447Z,10.75
2024-03-12T08:46:26.874Z,10.77
2024-03-12T08:48:54.081Z,10.56
2024-03-12T08:51:20.618Z,11.22
2024-03-12T08:53:47.509Z,10.98
2024-03-12T08:56:13.926Z,11.72
2024-03-12T08:58:40.312Z,10.98
2024-03-12T09:01:06.755Z,11.17
2024-03-12T09:03:33.445Z,11.49
2024-03-12T09:06:01.043Z,11.31
2024-03-12T09:08:27.533Z,11.21
2024-03-12T09:10:54.459Z,11.02
2024-03-12T09:13:21.117Z,11.17
2024-03-12T09:15:52.680Z,10.71
2024-03-12T09:18:25.849Z,11.08
2024-03-12T09:20:55.172Z,11.42
2024-03-12T09:23:21.968Z,11.20
2024-03-12T09:25:48.461Z,11.24
2024-03-12T09:28:17.900Z,10.62
2024-03-12T09:30:44.511Z,10.91
2024-03-12T09:33:12.028Z,11.08
2024-03-12T09:35:38.957Z,11.35
2024-03-12T09:38:05.605Z,11.21
2024-03-12T09:40:33.044Z,10.93
2024-03-12T09:43:00.713Z,11.48
2024-03-12T09:45:27.440Z,11.49
2024-03-12T09:47:54.006Z,11.60
2024-03-12T09:50:24.226Z,11.40
2024-03-12T09:53:22.639Z,11.12
2024-03-12T09:55:49.398Z,11.61
2024-03-12T09:58:15.793Z,11.01
2024-03-12T10:00:42.833Z,11.49
2024-03-12T10:03:10.194Z,11.92
2024-03-12T10:05:39.089Z,11.94
2024-03-12T10:08:17.896Z,11.23
2024-03-12T10:10:49.395Z,11.39
2024-03-12T10:13:17.116Z,11.38
2024-03-12T10:16:01.375Z,11.92
2024-03-12T10:18:30.621Z,11.79
2024-03-12T10:20:58.650Z,11.55
2024-03-12T10:23:27.331Z,12.01
2024-03-12T10:26:07.777Z,11.64
2024-03-12T10:28:34.965Z,11.68
2024-03-12T10:31:13.047Z,11.73
2024-03-12T10:33:44.023Z,11.82
2024-03-12T10:36:12.211Z,11.29
2024-03-12T10:38:40.743Z,11.29
2024-03-12T10:41:19.719Z,11.66
2024-03-12T10:43:58.333Z,11.71
2024-03-12T10:46:25.754Z,11.76
2024-03-12T10:48:53.533Z,11.03
2024-03-12T10:51:20.458Z,11.46
2024-03-12T10:53:54.251Z,11.31
2024-03-12T10:56:20.961Z,11.14
2024-03-12T10:58:48.330Z,10.86
2024-03-12T11:01:17.703Z,11.00
2024-03-12T11:03:45.068Z,11.37
2024-03-12T11:06:14.506Z,11.20
2024-03-12T11:08:43.544Z,11.36
2024-03-12T11:11:10.633Z,11.41
2024-03-12T11:13:37.419Z,11.34
2024-03-12T11:16:14.194Z,11.49
2024-03-12T11:18:41.128Z,11.83
2024-03-12T11:21:31.882Z,11.69
2024-03-12T11:23:59.028Z,11.76
2024-03-12T11:29:00.083Z,12.32
2024-03-12T11:31:35.997Z,12.12
2024-03-12T11:34:02.413Z,12.16
2024-03-12T11:36:32.528Z,12.15
2024-03-12T11:39:13.771Z,12.36
2024-03-12T11:42:00.603Z,12.92
2024-03-12T11:44:50.897Z,12.28
2024-03-12T11:47:38.123Z,11.96
2024-03-12T11:50:25.581Z,12.27
2024-03-12T11:52:52.184Z,12.20
2024-03-12T11:55:53.488Z,12.28
2024-03-12T11:58:21.441Z,12.92
2024-03-12T12:00:51.818Z,12.11
2024-03-12T12:03:18.449Z,12.57
2024-03-12T12:05:48.450Z,12.98
2024-03-12T12:08:17.659Z,12.48
2024-03-12T12:10:56.488Z,12.47
2024-03-12T12:13:24.146Z,12.76
2024-03-12T12:16:03.895Z,12.53
2024-03-12T12:18:31.606Z,13.21
2024-03-12T12:21:01.173Z,12.64
2024-03-12T12:23:28.746Z,12.62
2024-03-12T12:25:56.225Z,12.78
2024-03-12T12:28:26.934Z,12.94
2024-03-12T12:30:57.959Z,13.47
2024-03-12T12:33:26.622Z,13.09
2024-03-12T12:35:56.069Z,12.79
2024-03-12T12:38:24.707Z,12.57
2024-03-12T12:40:52.072Z,13.53
2024-03-12T12:43:18.545Z,13.08
2024-03-12T12:45:47.426Z,13.52
2024-03-12T12:48:18.973Z,13.99
2024-03-12T12:50:55.765Z,14.32
2024-03-12T12:53:24.740Z,14.96
2024-03-12T12:56:01.117Z,15.08
2024-03-12T12:58:29.359Z,14.45
2024-03-12T13:01:07.249Z,14.30
2024-03-12T13:03:41.733Z,14.27
2024-03-12T13:06:22.512Z,14.70
2024-03-12T13:08:52.625Z,15.13
2024-03-12T13:11:23.303Z,15.16
2024-03-12T13:13:52.086Z,14.88
2024-03-12T13:16:21.313Z,15.09
2024-03-12T13:18:49.541Z,14.98
2024-03-12T13:21:26.047Z,13.67
2024-03-12T13:23:55.586Z,13.58
2024-03-12T13:26:24.477Z,13.43
2024-03-12T13:28:55.074Z,13.30
2024-03-12T13:31:24.729Z,13.28
2024-03-12T13:33:52.120Z,13.42
2024-03-12T13:36:20.388Z,13.11
2024-03-12T13:38:46.779Z,12.76
2024-03-12T13:41:14.283Z,12.89
2024-03-12T13:43:43.150Z,12.81
2024-03-12T13:46:10.200Z,12.96
2024-03-12T13:48:38.156Z,13.15
2024-03-12T13:51:05.837Z,13.11
2024-03-12T13:53:32.464Z,12.96
2024-03-12T13:56:00.503Z,13.01
2024-03-12T13:58:27.197Z,12.66
2024-03-12T14:00:58.715Z,12.48
2024-03-12T14:03:28.603Z,12.72
2024-03-12T14:05:56.120Z,13.11
2024-03-12T14:08:24.147Z,13.02
2024-03-12T14:10:52.976Z,12.97
2024-03-12T14:13:22.378Z,13.26
2024-03-12T14:15:51.924Z,13.32
2024-03-12T14:18:22.688Z,13.52
2024-03-12T14:20:52.528Z,13.08
2024-03-12T14:23:19.916Z,13.06
2024-03-12T14:25:46.608Z,13.67
2024-03-12T14:28:13.027Z,13.58
2024-03-12T14:30:42.683Z,13.40
2024-03-12T14:33:13.390Z,13.32
2024-03-12T14:35:40.145Z,13.47
2024-03-12T14:38:06.678Z,13.70
2024-03-12T14:40:33.077Z,13.45
2024-03-12T14:43:01.587Z,13.71
2024-03-12T14:45:28.788Z,13.28
2024-03-12T14:47:56.114Z,13.23
2024-03-12T14:50:23.410Z,13.37
2024-03-12T14:52:49.802Z,13.87
2024-03-12T14:55:16.281Z,14.76
2024-03-12T14:57:42.777Z,14.52
2024-03-12T15:00:10.823Z,14.58
2024-03-12T15:02:37.937Z,14.48
2024-03-12T15:05:12.258Z,13.56
2024-03-12T15:07:44.823Z,14.56
2024-03-12T15:10:12.580Z,14.85
2024-03-12T15:12:41.359Z,14.44
2024-03-12T15:15:13.103Z,14.81
2024-03-12T15:17:41.344Z,14.12
2024-03-12T15:20:15.414Z,14.29
2024-03-12T15:22:50.302Z,14.26
2024-03-12T15:25:20.167Z,14.43
2024-03-12T15:27:47.865Z,15.12
2024-03-12T15:30:17.502Z,14.55
2024-03-12T15:32:44.222Z,14.46
2024-03-12T15:35:15.254Z,14.83
2024-03-12T15:37:43.240Z,15.20
2024-03-12T15:40:10.269Z,15.44
2024-03-12T15:42:38.743Z,14.79
2024-03-12T15:45:10.600Z,14.85
2024-03-12T15:47:44.686Z,14.60
2024-03-12T15:50:16.509Z,14.54
2024-03-12T15:52:43.207Z,14.67
2024-03-12T15:55:10.958Z,14.63
2024-03-12T15:57:40.049Z,14.88
2024-03-12T16:00:08.234Z,13.79
2024-03-12T16:02:35.629Z,14.12
2024-03-12T16:05:05.872Z,14.15
2024-03-12T16:07:35.266Z,13.85
2024-03-12T16:10:03.089Z,13.92
2024-03-12T16:12:29.930Z,13.36
2024-03-12T16:14:56.398Z,13.73
2024-03-12T16:17:23.042Z,14.03
2024-03-12T16:19:50.063Z,14.23
2024-03-12T16:22:16.621Z,14.09
2024-03-12T16:24:43.025Z,13.70
2024-03-12T16:27:09.493Z,13.55
2024-03-12T16:29:38.687Z,13.71
2024-03-12T16:32:08.630Z,13.77
2024-03-12T16:34:35.090Z,13.18
2024-03-12T16:37:02.786Z,13.08
2024-03-12T16:39:29.944Z,13.44
2024-03-12T16:41:59.424Z,13.38
2024-03-12T16:44:32.031Z,13.70
2024-03-12T16:47:05.285Z,13.34
2024-03-12T16:49:32.725Z,13.36
2024-03-12T16:51:59.561Z,13.19
2024-03-12T16:54:28.832Z,13.43
2024-03-12T16:56:56.793Z,13.64
2024-03-12T16:59:23.473Z,12.63
2024-03-12T17:01:50.302Z,13.02
2024-03-12T17:04:17.247Z,13.19
2024-03-12T17:06:44.631Z,12.82
2024-03-12T17:09:11.399Z,13.05
2024-03-12T17:11:38.934Z,13.38
2024-03-12T17:14:10.239Z,12.70
2024-03-12T17:16:41.398Z,12.98
2024-03-12T17:19:08.061Z,13.00
2024-03-12T17:21:39.373Z,13.38
2024-03-12T17:24:06.174Z,12.88
2024-03-12T17:26:37.679Z,12.65
2024-03-12T17:29:05.127Z,12.31
2024-03-12T17:31:32.428Z,12.63
2024-03-12T17:33:59.161Z,12.15
2024-03-12T17:36:26.836Z,12.14
2024-03-12T17:38:53.570Z,11.75
2024-03-12T17:41:20.419Z,12.08
2024-03-12T17:43:47.053Z,11.77
2024-03-12T17:46:18.394Z,12.43
2024-03-12T17:48:45.412Z,12.55
2024-03-12T17:51:12.334Z,12.95
2024-03-12T17:53:39.046Z,12.36
2024-03-12T17:56:06.885Z,12.42
2024-03-12T17:58:38.418Z,12.08
2024-03-12T18:01:06.427Z,12.20
2024-03-12T18:03:33.975Z,12.38
2024-03-12T18:06:04.457Z,11.95
2024-03-12T18:08:37.672Z,12.04
2024-03-12T18:11:09.258Z,12.26
2024-03-12T18:13:36.143Z,11.87
2024-03-12T18:16:02.557Z,11.79
2024-03-12T18:18:31.686Z,11.51
2024-03-12T18:20:58.306Z,12.24
2024-03-12T18:23:24.995Z,12.28
2024-03-12T18:25:51.421Z,12.55
2024-03-12T18:28:17.850Z,12.72
2024-03-12T18:30:44.335Z,12.49
2024-03-12T18:33:12.359Z,12.78
2024-03-12T18:35:38.928Z,12.04
2024-03-12T18:38:06.874Z,11.82
2024-03-12T18:40:33.415Z,12.44
2024-03-12T18:43:01.806Z,12.44
2024-03-12T18:45:28.617Z,12.15
2024-03-12T18:47:56.266Z,12.05
2024-03-12T18:50:25.468Z,11.97
2024-03-12T18:52:58.312Z,11.98
2024-03-12T18:55:27.660Z,11.80
2024-03-12T18:57:54.620Z,11.68
2024-03-12T19:00:24.241Z,11.50
2024-03-12T19:02:52.921Z,12.10
2024-03-12T19:05:21.537Z,11.98
2024-03-12T19:07:50.090Z,12.61
2024-03-12T19:10:17.882Z,12.12
2024-03-12T19:12:45.483Z,12.23
2024-03-12T19:15:15.529Z,12.01
2024-03-12T19:17:47.164Z,11.88
2024-03-12T19:20:20.356Z,11.72
2024-03-12T19:22:51.496Z,12.59
2024-03-12T19:25:19.978Z,12.74
2024-03-12T19:27:49.287Z,12.49
2024-03-12T19:30:20.670Z,12.22
2024-03-12T19:32:51.493Z,12.49
2024-03-12T19:35:18.978Z,12.21
2024-03-12T19:37:49.542Z,12.34
2024-03-12T19:40:22.258Z,12.00
2024-03-12T19:42:49.841Z,12.65
2024-03-12T19:45:28.523Z,12.56
2024-03-12T19:47:57.159Z,12.29
2024-03-12T19:50:26.006Z,11.87
2024-03-12T19:52:53.885Z,11.76
2024-03-12T19:55:31.599Z,12.18
2024-03-12T19:58:05.357Z,12.25
2024-03-12T20:00:34.336Z,12.20
2024-03-12T20:03:06.482Z,13.24
2024-03-12T20:05:33.652Z,12.86
2024-03-12T20:08:05.924Z,12.87
2024-03-12T20:10:33.364Z,12.92
2024-03-12T20:13:00.261Z,12.87
2024-03-12T20:15:28.942Z,12.87
2024-03-12T20:17:55.354Z,12.51
2024-03-12T20:20:23.461Z,12.41
2024-03-12T20:22:54.176Z,12.57
2024-03-12T20:25:22.945Z,12.91
2024-03-12T20:27:56.511Z,12.57
2024-03-12T20:30:28.498Z,12.51
2024-03-12T20:32:59.821Z,12.85
2024-03-12T20:35:28.755Z,12.83
2024-03-12T20:37:56.152Z,12.53
2024-03-12T20:40:25.818Z,12.50
2024-03-12T20:42:53.302Z,12.69
2024-03-12T20:45:22.889Z,12.70
2024-03-12T20:47:50.229Z,12.26
2024-03-12T20:50:19.958Z,12.38
2024-03-12T20:52:50.082Z,12.60
2024-03-12T20:55:17.138Z,13.67
2024-03-12T20:57:47.517Z,13.34
2024-03-12T21:00:21.303Z,12.75
2024-03-12T21:02:52.952Z,11.96
2024-03-12T21:05:19.626Z,11.89
2024-03-12T21:07:46.170Z,11.71
2024-03-12T21:10:13.298Z,11.70
2024-03-12T21:12:40.272Z,12.27
2024-03-12T21:15:23.601Z,11.85
2024-03-12T21:17:50.180Z,11.68
2024-03-12T21:20:23.154Z,11.86
2024-03-12T21:22:50.564Z,11.85
2024-03-12T21:25:18.538Z,11.84
2024-03-12T21:27:45.942Z,11.44
2024-03-12T21:30:18.969Z,11.98
2024-03-12T21:32:46.111Z,11.91
2024-03-12T21:35:13.046Z,11.86
2024-03-12T21:37:53.678Z,11.59
2024-03-12T21:40:20.556Z,11.70
2024-03-12T21:42:47.539Z,11.94
2024-03-12T21:45:16.366Z,12.16
2024-03-12T21:47:43.791Z,11.91
2024-03-12T21:50:15.582Z,11.87
2024-03-12T21:52:42.540Z,11.79
2024-03-12T21:55:11.285Z,11.79
2024-03-12T21:57:39.484Z,12.00
2024-03-12T22:00:13.115Z,11.67
2024-03-12T22:02:40.186Z,12.40
2024-03-12T22:05:06.905Z,11.88
2024-03-12T22:07:37.644Z,12.27
2024-03-12T22:10:04.720Z,12.12
2024-03-12T22:12:35.657Z,12.48
2024-03-12T22:15:02.139Z,12.12
2024-03-12T22:17:30.105Z,12.65
2024-03-12T22:19:56.516Z,12.33
2024-03-12T22:22:23.509Z,12.40
2024-03-12T22:24:50.154Z,12.42
2024-03-12T22:27:16.607Z,12.12
2024-03-12T22:29:43.019Z,11.57
2024-03-12T22:32:15.083Z,12.09
2024-03-12T22:34:42.059Z,12.37
2024-03-12T22:37:09.976Z,12.25
2024-03-12T22:39:37.621Z,12.56
2024-03-12T22:42:05.807Z,11.12
2024-03-12T22:44:32.339Z,11.83
2024-03-12T22:47:00.170Z,11.83
2024-03-12T22:49:27.070Z,11.67
2024-03-12T22:51:56.451Z,10.85
2024-03-12T22:54:24.103Z,11.41
2024-03-12T22:56:50.691Z,11.71
2024-03-12T22:59:19.725Z,11.62
2024-03-12T23:01:52.539Z,11.35
2024-03-12T23:04:19.383Z,11.43
2024-03-12T23:06:46.125Z,11.84
2024-03-12T23:09:14.647Z,11.59
2024-03-12T23:11:42.476Z,11.66
2024-03-12T23:14:10.501Z,12.35
2024-03-12T23:16:36.890Z,11.67
2024-03-12T23:19:03.344Z,11.64
2024-03-12T23:21:29.934Z,11.86
2024-03-12T23:23:57.760Z,12.20
2024-03-12T23:26:24.504Z,12.31
2024-03-12T23:28:50.912Z,12.62
2024-03-12T23:31:18.075Z,12.54
2024-03-12T23:33:45.189Z,12.02
2024-03-12T23:36:12.450Z,11.84
2024-03-12T23:38:39.657Z,11.67
2024-03-12T23:41:07.939Z,11.99
2024-03-12T23:43:34.951Z,11.67
2024-03-12T23:46:01.372Z,11.67
2024-03-12T23:48:27.946Z,11.10
2024-03-12T23:50:54.731Z,11.54
2024-03-12T23:53:21.561Z,12.01
2024-03-12T23:55:47.930Z,12.32
2024-03-12T23:58:16.280Z,12.55
